sensor_id;sensor_type;location;lat;lon;timestamp;temperature;humidity
24468;DHT22;12634;50.852;5.676;2023-08-07T00:02:14;13.10;99.90
24468;DHT22;12634;50.852;5.676;2023-08-07T00:04:43;13.00;99.90
24468;DHT22;12634;50.852;5.676;2023-08-07T00:07:10;13.00;99.90
24468;DHT22;12634;50.852;5.676;2023-08-07T00:09:37;13.00;99.90
24468;DHT22;12634;50.852;5.676;2023-08-07T00:12:04;13.00;99.90
24468;DHT22;12634;50.852;5.676;2023-08-07T00:14:32;13.00;99.90
24468;DHT22;12634;50.852;5.676;2023-08-07T00:16:59;13.00;99.90
24468;DHT22;12634;50.852;5.676;2023-08-07T00:19:26;12.90;99.90
24468;DHT22;12634;50.852;5.676;2023-08-07T00:21:55;12.90;99.90
24468;DHT22;12634;50.852;5.676;2023-08-07T00:24:22;12.90;99.90
24468;DHT22;12634;50.852;5.676;2023-08-07T00:26:49;13.00;99.90
24468;DHT22;12634;50.852;5.676;2023-08-07T00:29:16;13.00;99.90
24468;DHT22;12634;50.852;5.676;2023-08-07T00:31:43;12.90;99.90
24468;DHT22;12634;50.852;5.676;2023-08-07T00:34:10;13.00;99.90
24468;DHT22;12634;50.852;5.676;2023-08-07T00:36:38;13.00;99.90
24468;DHT22;12634;50.852;5.676;2023-08-07T00:39:06;13.00;99.90
24468;DHT22;12634;50.852;5.676;2023-08-07T00:41:34;12.90;99.90
24468;DHT22;12634;50.852;5.676;2023-08-07T00:44:01;12.90;99.90
24468;DHT22;12634;50.852;5.676;2023-08-07T00:46:29;13.00;99.90
24468;DHT22;12634;50.852;5.676;2023-08-07T00:48:57;12.90;99.90
24468;DHT22;12634;50.852;5.676;2023-08-07T00:51:24;13.00;99.90
24468;DHT22;12634;50.852;5.676;2023-08-07T00:53:51;12.90;99.90
24468;DHT22;12634;50.852;5.676;2023-08-07T00:56:20;12.90;99.90
24468;DHT22;12634;50.852;5.676;2023-08-07T00:58:48;12.90;99.90
24468;DHT22;12634;50.852;5.676;2023-08-07T01:01:16;12.90;99.90
24468;DHT22;12634;50.852;5.676;2023-08-07T01:03:44;12.90;99.90
24468;DHT22;12634;50.852;5.676;2023-08-07T01:06:11;12.90;99.90
24468;DHT22;12634;50.852;5.676;2023-08-07T01:08:38;12.90;99.90
24468;DHT22;12634;50.852;5.676;2023-08-07T01:11:20;12.90;99.90
24468;DHT22;12634;50.852;5.676;2023-08-07T01:13:56;12.90;99.90
24468;DHT22;12634;50.852;5.676;2023-08-07T01:16:34;12.90;99.90
24468;DHT22;12634;50.852;5.676;2023-08-07T01:19:04;12.90;99.90
24468;DHT22;12634;50.852;5.676;2023-08-07T01:21:35;12.90;99.90
24468;DHT22;12634;50.852;5.676;2023-08-07T01:24:05;12.90;99.90
24468;DHT22;12634;50.852;5.676;2023-08-07T01:26:33;12.90;99.90
24468;DHT22;12634;50.852;5.676;2023-08-07T01:29:06;12.90;99.90
24468;DHT22;12634;50.852;5.676;2023-08-07T01:31:39;12.90;99.90
24468;DHT22;12634;50.852;5.676;2023-08-07T01:34:11;12.90;99.90
24468;DHT22;12634;50.852;5.676;2023-08-07T01:36:40;12.90;99.90
24468;DHT22;12634;50.852;5.676;2023-08-07T01:39:09;12.90;99.90
24468;DHT22;12634;50.852;5.676;2023-08-07T01:41:38;12.80;99.90
24468;DHT22;12634;50.852;5.676;2023-08-07T01:44:05;12.90;99.90
24468;DHT22;12634;50.852;5.676;2023-08-07T01:46:32;12.90;99.90
24468;DHT22;12634;50.852;5.676;2023-08-07T01:49:00;12.90;99.90
24468;DHT22;12634;50.852;5.676;2023-08-07T01:51:27;12.90;99.90
24468;DHT22;12634;50.852;5.676;2023-08-07T01:53:54;12.90;99.90
24468;DHT22;12634;50.852;5.676;2023-08-07T01:56:22;12.90;99.90
24468;DHT22;12634;50.852;5.676;2023-08-07T01:58:50;12.90;99.90
24468;DHT22;12634;50.852;5.676;2023-08-07T02:01:17;12.90;99.90
24468;DHT22;12634;50.852;5.676;2023-08-07T02:03:44;12.90;99.90
24468;DHT22;12634;50.852;5.676;2023-08-07T02:06:11;12.90;99.90
24468;DHT22;12634;50.852;5.676;2023-08-07T02:08:38;12.80;99.90
24468;DHT22;12634;50.852;5.676;2023-08-07T02:11:05;12.90;99.90
24468;DHT22;12634;50.852;5.676;2023-08-07T02:13:34;12.90;99.90
24468;DHT22;12634;50.852;5.676;2023-08-07T02:16:01;12.80;99.90
24468;DHT22;12634;50.852;5.676;2023-08-07T02:18:28;12.80;99.90
24468;DHT22;12634;50.852;5.676;2023-08-07T02:20:55;12.70;99.90
24468;DHT22;12634;50.852;5.676;2023-08-07T02:23:23;12.70;99.90
24468;DHT22;12634;50.852;5.676;2023-08-07T02:25:51;12.70;99.90
24468;DHT22;12634;50.852;5.676;2023-08-07T02:28:18;12.60;99.90
24468;DHT22;12634;50.852;5.676;2023-08-07T02:30:47;12.60;99.90
24468;DHT22;12634;50.852;5.676;2023-08-07T02:33:16;12.60;99.90
24468;DHT22;12634;50.852;5.676;2023-08-07T02:35:44;12.50;99.90
24468;DHT22;12634;50.852;5.676;2023-08-07T02:38:11;12.50;99.90
24468;DHT22;12634;50.852;5.676;2023-08-07T02:40:38;12.50;99.90
24468;DHT22;12634;50.852;5.676;2023-08-07T02:43:05;12.40;99.90
24468;DHT22;12634;50.852;5.676;2023-08-07T02:45:34;12.40;99.90
24468;DHT22;12634;50.852;5.676;2023-08-07T02:48:03;12.50;99.90
24468;DHT22;12634;50.852;5.676;2023-08-07T02:50:31;12.50;99.90
24468;DHT22;12634;50.852;5.676;2023-08-07T02:52:59;12.50;99.90
24468;DHT22;12634;50.852;5.676;2023-08-07T02:55:26;12.50;99.90
24468;DHT22;12634;50.852;5.676;2023-08-07T02:57:53;12.50;99.90
24468;DHT22;12634;50.852;5.676;2023-08-07T03:00:21;12.50;99.90
24468;DHT22;12634;50.852;5.676;2023-08-07T03:02:48;12.50;99.90
24468;DHT22;12634;50.852;5.676;2023-08-07T03:05:16;12.50;99.90
24468;DHT22;12634;50.852;5.676;2023-08-07T03:07:44;12.50;99.90
24468;DHT22;12634;50.852;5.676;2023-08-07T03:10:11;12.50;99.90
24468;DHT22;12634;50.852;5.676;2023-08-07T03:12:38;12.50;99.90
24468;DHT22;12634;50.852;5.676;2023-08-07T03:15:06;12.50;99.90
24468;DHT22;12634;50.852;5.676;2023-08-07T03:17:33;12.50;99.90
24468;DHT22;12634;50.852;5.676;2023-08-07T03:20:01;12.50;99.90
24468;DHT22;12634;50.852;5.676;2023-08-07T03:22:31;12.40;99.90
24468;DHT22;12634;50.852;5.676;2023-08-07T03:24:58;12.40;99.90
24468;DHT22;12634;50.852;5.676;2023-08-07T03:27:25;12.40;99.90
24468;DHT22;12634;50.852;5.676;2023-08-07T03:29:52;12.40;99.90
24468;DHT22;12634;50.852;5.676;2023-08-07T03:32:19;12.40;99.90
24468;DHT22;12634;50.852;5.676;2023-08-07T03:34:46;12.40;99.90
24468;DHT22;12634;50.852;5.676;2023-08-07T03:37:14;12.40;99.90
24468;DHT22;12634;50.852;5.676;2023-08-07T03:39:42;12.30;99.90
24468;DHT22;12634;50.852;5.676;2023-08-07T03:42:13;12.30;99.90
24468;DHT22;12634;50.852;5.676;2023-08-07T03:44:41;12.30;99.90
24468;DHT22;12634;50.852;5.676;2023-08-07T03:47:08;12.30;99.90
24468;DHT22;12634;50.852;5.676;2023-08-07T03:49:36;12.30;99.90
24468;DHT22;12634;50.852;5.676;2023-08-07T03:52:03;12.20;99.90
24468;DHT22;12634;50.852;5.676;2023-08-07T03:54:31;12.20;99.90
24468;DHT22;12634;50.852;5.676;2023-08-07T03:56:59;12.20;99.90
24468;DHT22;12634;50.852;5.676;2023-08-07T03:59:26;12.20;99.90
24468;DHT22;12634;50.852;5.676;2023-08-07T04:01:54;12.20;99.90
24468;DHT22;12634;50.852;5.676;2023-08-07T04:04:22;12.20;99.90
24468;DHT22;12634;50.852;5.676;2023-08-07T04:06:49;12.20;99.90
24468;DHT22;12634;50.852;5.676;2023-08-07T04:09:16;12.20;99.90
24468;DHT22;12634;50.852;5.676;2023-08-07T04:11:43;12.20;99.90
24468;DHT22;12634;50.852;5.676;2023-08-07T04:14:12;12.20;99.90
24468;DHT22;12634;50.852;5.676;2023-08-07T04:16:39;12.10;99.90
24468;DHT22;12634;50.852;5.676;2023-08-07T04:19:06;12.10;99.90
24468;DHT22;12634;50.852;5.676;2023-08-07T04:21:34;12.10;99.90
24468;DHT22;12634;50.852;5.676;2023-08-07T04:24:01;12.10;99.90
24468;DHT22;12634;50.852;5.676;2023-08-07T04:26:33;12.10;99.90
24468;DHT22;12634;50.852;5.676;2023-08-07T04:29:01;12.00;99.90
24468;DHT22;12634;50.852;5.676;2023-08-07T04:31:29;12.00;99.90
24468;DHT22;12634;50.852;5.676;2023-08-07T04:33:57;12.00;99.90
24468;DHT22;12634;50.852;5.676;2023-08-07T04:36:24;12.00;99.90
24468;DHT22;12634;50.852;5.676;2023-08-07T04:38:52;12.00;99.90
24468;DHT22;12634;50.852;5.676;2023-08-07T04:41:21;12.00;99.90
24468;DHT22;12634;50.852;5.676;2023-08-07T04:43:48;12.00;99.90
24468;DHT22;12634;50.852;5.676;2023-08-07T04:46:15;12.00;99.90
24468;DHT22;12634;50.852;5.676;2023-08-07T04:48:44;12.00;99.90
24468;DHT22;12634;50.852;5.676;2023-08-07T04:51:11;12.10;99.90
24468;DHT22;12634;50.852;5.676;2023-08-07T04:53:38;12.00;99.90
24468;DHT22;12634;50.852;5.676;2023-08-07T04:56:05;12.10;99.90
24468;DHT22;12634;50.852;5.676;2023-08-07T04:58:33;12.10;99.90
24468;DHT22;12634;50.852;5.676;2023-08-07T05:01:00;12.20;99.90
24468;DHT22;12634;50.852;5.676;2023-08-07T05:03:27;12.10;99.90
24468;DHT22;12634;50.852;5.676;2023-08-07T05:06:00;12.10;99.90
24468;DHT22;12634;50.852;5.676;2023-08-07T05:08:27;12.20;99.90
24468;DHT22;12634;50.852;5.676;2023-08-07T05:10:54;12.20;99.90
24468;DHT22;12634;50.852;5.676;2023-08-07T05:13:22;12.20;99.90
24468;DHT22;12634;50.852;5.676;2023-08-07T05:15:49;12.30;99.90
24468;DHT22;12634;50.852;5.676;2023-08-07T05:18:17;12.30;99.90
24468;DHT22;12634;50.852;5.676;2023-08-07T05:20:44;12.20;99.90
24468;DHT22;12634;50.852;5.676;2023-08-07T05:23:13;12.30;99.90
24468;DHT22;12634;50.852;5.676;2023-08-07T05:25:40;12.30;99.90
24468;DHT22;12634;50.852;5.676;2023-08-07T05:28:07;12.30;99.90
24468;DHT22;12634;50.852;5.676;2023-08-07T05:30:34;12.30;99.90
24468;DHT22;12634;50.852;5.676;2023-08-07T05:33:02;12.30;99.90
24468;DHT22;12634;50.852;5.676;2023-08-07T05:35:29;12.40;99.90
24468;DHT22;12634;50.852;5.676;2023-08-07T05:37:56;12.40;99.90
24468;DHT22;12634;50.852;5.676;2023-08-07T05:40:25;12.50;99.90
24468;DHT22;12634;50.852;5.676;2023-08-07T05:42:52;12.50;99.90
24468;DHT22;12634;50.852;5.676;2023-08-07T05:45:19;12.60;99.90
24468;DHT22;12634;50.852;5.676;2023-08-07T05:47:46;12.60;99.90
24468;DHT22;12634;50.852;5.676;2023-08-07T05:50:14;12.70;99.90
24468;DHT22;12634;50.852;5.676;2023-08-07T05:52:41;12.70;99.90
24468;DHT22;12634;50.852;5.676;2023-08-07T05:55:08;12.70;99.90
24468;DHT22;12634;50.852;5.676;2023-08-07T05:57:37;12.80;99.90
24468;DHT22;12634;50.852;5.676;2023-08-07T06:00:05;12.80;99.90
24468;DHT22;12634;50.852;5.676;2023-08-07T06:02:33;12.80;99.90
24468;DHT22;12634;50.852;5.676;2023-08-07T06:05:00;12.90;99.90
24468;DHT22;12634;50.852;5.676;2023-08-07T06:07:27;12.90;99.90
24468;DHT22;12634;50.852;5.676;2023-08-07T06:09:55;12.90;99.90
24468;DHT22;12634;50.852;5.676;2023-08-07T06:12:22;13.00;99.90
24468;DHT22;12634;50.852;5.676;2023-08-07T06:14:50;13.00;99.90
24468;DHT22;12634;50.852;5.676;2023-08-07T06:17:18;13.10;99.90
24468;DHT22;12634;50.852;5.676;2023-08-07T06:19:45;13.10;99.90
24468;DHT22;12634;50.852;5.676;2023-08-07T06:22:12;13.10;99.90
24468;DHT22;12634;50.852;5.676;2023-08-07T06:24:39;13.10;99.90
24468;DHT22;12634;50.852;5.676;2023-08-07T06:27:06;13.10;99.90
24468;DHT22;12634;50.852;5.676;2023-08-07T06:29:34;13.20;99.90
24468;DHT22;12634;50.852;5.676;2023-08-07T06:32:02;13.20;99.90
24468;DHT22;12634;50.852;5.676;2023-08-07T06:34:30;13.30;99.90
24468;DHT22;12634;50.852;5.676;2023-08-07T06:36:57;13.30;99.90
24468;DHT22;12634;50.852;5.676;2023-08-07T06:39:24;13.40;99.90
24468;DHT22;12634;50.852;5.676;2023-08-07T06:41:51;13.50;99.90
24468;DHT22;12634;50.852;5.676;2023-08-07T06:44:18;13.60;99.90
24468;DHT22;12634;50.852;5.676;2023-08-07T06:46:45;13.60;99.90
24468;DHT22;12634;50.852;5.676;2023-08-07T06:49:14;13.70;99.90
24468;DHT22;12634;50.852;5.676;2023-08-07T06:51:41;13.70;99.90
24468;DHT22;12634;50.852;5.676;2023-08-07T06:54:08;13.70;99.90
24468;DHT22;12634;50.852;5.676;2023-08-07T06:56:35;13.80;99.90
24468;DHT22;12634;50.852;5.676;2023-08-07T06:59:06;13.90;99.90
24468;DHT22;12634;50.852;5.676;2023-08-07T07:01:33;14.00;99.90
24468;DHT22;12634;50.852;5.676;2023-08-07T07:04:00;14.00;99.90
24468;DHT22;12634;50.852;5.676;2023-08-07T07:06:29;14.00;99.90
24468;DHT22;12634;50.852;5.676;2023-08-07T07:08:56;14.00;99.90
24468;DHT22;12634;50.852;5.676;2023-08-07T07:11:23;14.00;99.90
24468;DHT22;12634;50.852;5.676;2023-08-07T07:13:51;14.10;99.90
24468;DHT22;12634;50.852;5.676;2023-08-07T07:16:18;14.10;99.90
24468;DHT22;12634;50.852;5.676;2023-08-07T07:18:47;14.00;99.90
24468;DHT22;12634;50.852;5.676;2023-08-07T07:21:14;14.00;99.90
24468;DHT22;12634;50.852;5.676;2023-08-07T07:23:43;14.20;99.90
24468;DHT22;12634;50.852;5.676;2023-08-07T07:26:10;14.70;99.90
24468;DHT22;12634;50.852;5.676;2023-08-07T07:28:37;14.90;99.90
24468;DHT22;12634;50.852;5.676;2023-08-07T07:31:04;15.10;99.90
24468;DHT22;12634;50.852;5.676;2023-08-07T07:33:34;15.10;99.90
24468;DHT22;12634;50.852;5.676;2023-08-07T07:36:02;15.40;99.90
24468;DHT22;12634;50.852;5.676;2023-08-07T07:38:29;15.20;99.90
24468;DHT22;12634;50.852;5.676;2023-08-07T07:40:58;15.20;99.90
24468;DHT22;12634;50.852;5.676;2023-08-07T07:43:25;15.20;99.90
24468;DHT22;12634;50.852;5.676;2023-08-07T07:45:52;15.40;99.90
24468;DHT22;12634;50.852;5.676;2023-08-07T07:48:19;15.60;99.90
24468;DHT22;12634;50.852;5.676;2023-08-07T07:50:46;16.30;99.90
24468;DHT22;12634;50.852;5.676;2023-08-07T07:53:13;16.30;99.90
24468;DHT22;12634;50.852;5.676;2023-08-07T07:55:46;16.20;99.90
24468;DHT22;12634;50.852;5.676;2023-08-07T07:58:14;16.40;99.90
24468;DHT22;12634;50.852;5.676;2023-08-07T08:00:41;16.20;99.90
24468;DHT22;12634;50.852;5.676;2023-08-07T08:03:08;16.30;99.90
24468;DHT22;12634;50.852;5.676;2023-08-07T08:05:36;16.40;99.90
24468;DHT22;12634;50.852;5.676;2023-08-07T08:08:05;16.30;99.90
24468;DHT22;12634;50.852;5.676;2023-08-07T08:10:33;16.30;99.90
24468;DHT22;12634;50.852;5.676;2023-08-07T08:13:01;16.70;99.90
24468;DHT22;12634;50.852;5.676;2023-08-07T08:15:30;17.00;99.90
24468;DHT22;12634;50.852;5.676;2023-08-07T08:17:58;17.60;99.90
24468;DHT22;12634;50.852;5.676;2023-08-07T08:20:25;17.50;99.90
24468;DHT22;12634;50.852;5.676;2023-08-07T08:22:52;17.60;99.90
24468;DHT22;12634;50.852;5.676;2023-08-07T08:25:20;18.10;99.90
24468;DHT22;12634;50.852;5.676;2023-08-07T08:27:47;17.40;99.90
24468;DHT22;12634;50.852;5.676;2023-08-07T08:30:15;16.80;99.90
24468;DHT22;12634;50.852;5.676;2023-08-07T08:32:44;16.70;99.90
24468;DHT22;12634;50.852;5.676;2023-08-07T08:35:11;16.60;99.90
24468;DHT22;12634;50.852;5.676;2023-08-07T08:37:38;16.60;99.90
24468;DHT22;12634;50.852;5.676;2023-08-07T08:40:07;17.20;99.90
24468;DHT22;12634;50.852;5.676;2023-08-07T08:42:35;18.10;99.90
24468;DHT22;12634;50.852;5.676;2023-08-07T08:45:04;17.90;99.90
24468;DHT22;12634;50.852;5.676;2023-08-07T08:47:32;18.70;99.90
24468;DHT22;12634;50.852;5.676;2023-08-07T08:50:07;18.80;99.90
24468;DHT22;12634;50.852;5.676;2023-08-07T08:52:36;19.30;99.90
24468;DHT22;12634;50.852;5.676;2023-08-07T08:55:04;19.40;99.90
24468;DHT22;12634;50.852;5.676;2023-08-07T08:57:33;19.00;99.90
24468;DHT22;12634;50.852;5.676;2023-08-07T09:00:01;19.10;99.90
24468;DHT22;12634;50.852;5.676;2023-08-07T09:02:33;19.30;99.90
24468;DHT22;12634;50.852;5.676;2023-08-07T09:05:00;19.70;99.90
24468;DHT22;12634;50.852;5.676;2023-08-07T09:07:29;19.60;99.90
24468;DHT22;12634;50.852;5.676;2023-08-07T09:09:57;19.50;99.90
24468;DHT22;12634;50.852;5.676;2023-08-07T09:12:26;19.70;99.90
24468;DHT22;12634;50.852;5.676;2023-08-07T09:14:57;19.50;99.90
24468;DHT22;12634;50.852;5.676;2023-08-07T09:17:27;19.30;99.90
24468;DHT22;12634;50.852;5.676;2023-08-07T09:19:55;19.20;99.90
24468;DHT22;12634;50.852;5.676;2023-08-07T09:22:22;19.20;99.90
24468;DHT22;12634;50.852;5.676;2023-08-07T09:24:50;19.70;99.90
24468;DHT22;12634;50.852;5.676;2023-08-07T09:27:18;20.50;99.90
24468;DHT22;12634;50.852;5.676;2023-08-07T09:29:46;20.70;99.90
24468;DHT22;12634;50.852;5.676;2023-08-07T09:32:14;19.90;99.90
24468;DHT22;12634;50.852;5.676;2023-08-07T09:34:41;19.00;99.90
24468;DHT22;12634;50.852;5.676;2023-08-07T09:37:08;18.40;99.90
24468;DHT22;12634;50.852;5.676;2023-08-07T09:39:35;18.00;99.90
24468;DHT22;12634;50.852;5.676;2023-08-07T09:42:05;17.80;99.90
24468;DHT22;12634;50.852;5.676;2023-08-07T09:44:35;17.70;99.90
24468;DHT22;12634;50.852;5.676;2023-08-07T09:47:12;17.90;99.90
24468;DHT22;12634;50.852;5.676;2023-08-07T09:49:40;17.90;99.90
24468;DHT22;12634;50.852;5.676;2023-08-07T09:52:09;17.70;99.90
24468;DHT22;12634;50.852;5.676;2023-08-07T09:54:37;17.80;99.90
24468;DHT22;12634;50.852;5.676;2023-08-07T09:57:06;17.70;99.90
24468;DHT22;12634;50.852;5.676;2023-08-07T09:59:34;18.10;99.90
24468;DHT22;12634;50.852;5.676;2023-08-07T10:02:02;19.40;99.90
24468;DHT22;12634;50.852;5.676;2023-08-07T10:04:29;20.80;99.90
24468;DHT22;12634;50.852;5.676;2023-08-07T10:06:57;20.50;99.90
24468;DHT22;12634;50.852;5.676;2023-08-07T10:09:24;18.90;99.90
24468;DHT22;12634;50.852;5.676;2023-08-07T10:11:54;17.90;99.90
24468;DHT22;12634;50.852;5.676;2023-08-07T10:14:23;18.70;99.90
24468;DHT22;12634;50.852;5.676;2023-08-07T10:16:51;19.70;99.90
24468;DHT22;12634;50.852;5.676;2023-08-07T10:19:19;19.90;99.90
24468;DHT22;12634;50.852;5.676;2023-08-07T10:21:47;19.20;99.90
24468;DHT22;12634;50.852;5.676;2023-08-07T10:24:15;19.30;99.90
24468;DHT22;12634;50.852;5.676;2023-08-07T10:26:44;19.90;99.90
24468;DHT22;12634;50.852;5.676;2023-08-07T10:29:15;19.70;99.90
24468;DHT22;12634;50.852;5.676;2023-08-07T10:31:46;20.30;99.90
24468;DHT22;12634;50.852;5.676;2023-08-07T10:34:13;19.40;99.90
24468;DHT22;12634;50.852;5.676;2023-08-07T10:36:40;18.60;99.90
24468;DHT22;12634;50.852;5.676;2023-08-07T10:39:09;18.30;99.90
24468;DHT22;12634;50.852;5.676;2023-08-07T10:41:41;18.50;99.90
24468;DHT22;12634;50.852;5.676;2023-08-07T10:44:17;18.90;99.90
24468;DHT22;12634;50.852;5.676;2023-08-07T10:46:52;19.60;99.90
24468;DHT22;12634;50.852;5.676;2023-08-07T10:49:37;20.40;99.90
24468;DHT22;12634;50.852;5.676;2023-08-07T10:52:09;20.30;99.90
24468;DHT22;12634;50.852;5.676;2023-08-07T10:54:40;20.20;99.90
24468;DHT22;12634;50.852;5.676;2023-08-07T10:57:12;19.90;99.90
24468;DHT22;12634;50.852;5.676;2023-08-07T10:59:45;19.30;99.90
24468;DHT22;12634;50.852;5.676;2023-08-07T11:02:23;19.30;99.90
24468;DHT22;12634;50.852;5.676;2023-08-07T11:04:52;19.40;99.90
24468;DHT22;12634;50.852;5.676;2023-08-07T11:07:26;20.20;99.90
24468;DHT22;12634;50.852;5.676;2023-08-07T11:09:54;20.30;99.90
24468;DHT22;12634;50.852;5.676;2023-08-07T11:12:24;20.50;99.90
24468;DHT22;12634;50.852;5.676;2023-08-07T11:14:52;21.00;99.90
24468;DHT22;12634;50.852;5.676;2023-08-07T11:17:24;20.10;99.90
24468;DHT22;12634;50.852;5.676;2023-08-07T11:19:53;19.30;99.90
24468;DHT22;12634;50.852;5.676;2023-08-07T11:22:20;18.90;99.90
24468;DHT22;12634;50.852;5.676;2023-08-07T11:24:48;18.80;99.90
24468;DHT22;12634;50.852;5.676;2023-08-07T11:27:15;19.10;99.90
24468;DHT22;12634;50.852;5.676;2023-08-07T11:29:47;19.40;99.90
24468;DHT22;12634;50.852;5.676;2023-08-07T11:32:14;19.90;99.90
24468;DHT22;12634;50.852;5.676;2023-08-07T11:34:48;20.40;99.90
24468;DHT22;12634;50.852;5.676;2023-08-07T11:37:16;20.30;99.90
24468;DHT22;12634;50.852;5.676;2023-08-07T11:39:44;20.80;99.90
24468;DHT22;12634;50.852;5.676;2023-08-07T11:42:11;21.20;99.90
24468;DHT22;12634;50.852;5.676;2023-08-07T11:44:40;20.90;99.90
24468;DHT22;12634;50.852;5.676;2023-08-07T11:47:08;20.70;99.90
24468;DHT22;12634;50.852;5.676;2023-08-07T11:49:35;20.30;99.90
24468;DHT22;12634;50.852;5.676;2023-08-07T11:52:06;19.60;99.90
24468;DHT22;12634;50.852;5.676;2023-08-07T11:54:33;19.70;99.90
24468;DHT22;12634;50.852;5.676;2023-08-07T11:57:00;20.10;99.90
24468;DHT22;12634;50.852;5.676;2023-08-07T11:59:28;20.30;99.90
24468;DHT22;12634;50.852;5.676;2023-08-07T12:01:55;21.60;99.90
24468;DHT22;12634;50.852;5.676;2023-08-07T12:04:23;21.50;99.90
24468;DHT22;12634;50.852;5.676;2023-08-07T12:06:53;21.60;99.90
24468;DHT22;12634;50.852;5.676;2023-08-07T12:09:22;22.10;99.90
24468;DHT22;12634;50.852;5.676;2023-08-07T12:11:55;21.80;99.90
24468;DHT22;12634;50.852;5.676;2023-08-07T12:14:22;22.00;99.90
24468;DHT22;12634;50.852;5.676;2023-08-07T12:16:49;22.20;99.90
24468;DHT22;12634;50.852;5.676;2023-08-07T12:19:16;20.90;99.90
24468;DHT22;12634;50.852;5.676;2023-08-07T12:21:45;20.20;99.90
24468;DHT22;12634;50.852;5.676;2023-08-07T12:24:13;19.50;99.90
24468;DHT22;12634;50.852;5.676;2023-08-07T12:26:41;20.80;99.90
24468;DHT22;12634;50.852;5.676;2023-08-07T12:29:08;21.50;99.90
24468;DHT22;12634;50.852;5.676;2023-08-07T12:31:36;21.80;99.90
24468;DHT22;12634;50.852;5.676;2023-08-07T12:34:03;21.90;99.90
24468;DHT22;12634;50.852;5.676;2023-08-07T12:36:30;22.50;99.90
24468;DHT22;12634;50.852;5.676;2023-08-07T12:38:57;22.00;99.90
24468;DHT22;12634;50.852;5.676;2023-08-07T12:41:24;22.30;99.90
24468;DHT22;12634;50.852;5.676;2023-08-07T12:43:53;22.90;99.90
24468;DHT22;12634;50.852;5.676;2023-08-07T12:46:20;22.30;99.90
24468;DHT22;12634;50.852;5.676;2023-08-07T12:48:47;22.40;99.90
24468;DHT22;12634;50.852;5.676;2023-08-07T12:51:15;22.30;99.90
24468;DHT22;12634;50.852;5.676;2023-08-07T12:53:42;22.90;99.90
24468;DHT22;12634;50.852;5.676;2023-08-07T12:56:11;21.80;99.90
24468;DHT22;12634;50.852;5.676;2023-08-07T12:58:38;20.60;99.90
24468;DHT22;12634;50.852;5.676;2023-08-07T13:01:06;21.30;99.90
24468;DHT22;12634;50.852;5.676;2023-08-07T13:03:34;20.50;99.90
24468;DHT22;12634;50.852;5.676;2023-08-07T13:06:01;20.10;99.90
24468;DHT22;12634;50.852;5.676;2023-08-07T13:08:31;20.10;99.90
24468;DHT22;12634;50.852;5.676;2023-08-07T13:10:59;21.10;99.90
24468;DHT22;12634;50.852;5.676;2023-08-07T13:13:26;22.40;99.90
24468;DHT22;12634;50.852;5.676;2023-08-07T13:15:54;22.50;99.90
24468;DHT22;12634;50.852;5.676;2023-08-07T13:18:23;21.90;99.90
24468;DHT22;12634;50.852;5.676;2023-08-07T13:20:51;21.50;99.90
24468;DHT22;12634;50.852;5.676;2023-08-07T13:23:18;22.30;99.90
24468;DHT22;12634;50.852;5.676;2023-08-07T13:25:45;22.40;99.90
24468;DHT22;12634;50.852;5.676;2023-08-07T13:28:12;23.30;99.90
24468;DHT22;12634;50.852;5.676;2023-08-07T13:30:40;23.50;99.90
24468;DHT22;12634;50.852;5.676;2023-08-07T13:33:07;23.90;99.90
24468;DHT22;12634;50.852;5.676;2023-08-07T13:35:36;24.30;99.90
24468;DHT22;12634;50.852;5.676;2023-08-07T13:38:03;23.10;99.90
24468;DHT22;12634;50.852;5.676;2023-08-07T13:40:34;23.50;99.90
24468;DHT22;12634;50.852;5.676;2023-08-07T13:43:01;23.40;99.90
24468;DHT22;12634;50.852;5.676;2023-08-07T13:45:33;23.30;99.90
24468;DHT22;12634;50.852;5.676;2023-08-07T13:48:00;23.20;99.90
24468;DHT22;12634;50.852;5.676;2023-08-07T13:50:27;23.00;99.90
24468;DHT22;12634;50.852;5.676;2023-08-07T13:52:56;23.60;99.90
24468;DHT22;12634;50.852;5.676;2023-08-07T13:55:23;23.20;99.90
24468;DHT22;12634;50.852;5.676;2023-08-07T13:57:50;22.10;99.90
24468;DHT22;12634;50.852;5.676;2023-08-07T14:00:18;22.50;99.90
24468;DHT22;12634;50.852;5.676;2023-08-07T14:02:45;23.20;99.90
24468;DHT22;12634;50.852;5.676;2023-08-07T14:05:12;22.50;99.90
24468;DHT22;12634;50.852;5.676;2023-08-07T14:07:39;22.00;99.90
24468;DHT22;12634;50.852;5.676;2023-08-07T14:10:08;22.40;99.90
24468;DHT22;12634;50.852;5.676;2023-08-07T14:12:35;23.30;99.90
24468;DHT22;12634;50.852;5.676;2023-08-07T14:15:04;23.90;99.90
24468;DHT22;12634;50.852;5.676;2023-08-07T14:17:32;23.10;99.90
24468;DHT22;12634;50.852;5.676;2023-08-07T14:19:59;21.90;99.90
24468;DHT22;12634;50.852;5.676;2023-08-07T14:22:26;22.40;99.90
24468;DHT22;12634;50.852;5.676;2023-08-07T14:24:53;22.00;99.90
24468;DHT22;12634;50.852;5.676;2023-08-07T14:27:22;21.30;99.90
24468;DHT22;12634;50.852;5.676;2023-08-07T14:29:49;20.70;99.90
24468;DHT22;12634;50.852;5.676;2023-08-07T14:32:16;20.50;99.90
24468;DHT22;12634;50.852;5.676;2023-08-07T14:34:44;20.40;99.90
24468;DHT22;12634;50.852;5.676;2023-08-07T14:37:12;20.40;99.90
24468;DHT22;12634;50.852;5.676;2023-08-07T14:39:39;21.00;99.90
24468;DHT22;12634;50.852;5.676;2023-08-07T14:42:07;22.50;99.90
24468;DHT22;12634;50.852;5.676;2023-08-07T14:44:35;21.90;99.90
24468;DHT22;12634;50.852;5.676;2023-08-07T14:47:03;22.10;99.90
24468;DHT22;12634;50.852;5.676;2023-08-07T14:49:30;22.10;99.90
24468;DHT22;12634;50.852;5.676;2023-08-07T14:51:57;22.50;99.90
24468;DHT22;12634;50.852;5.676;2023-08-07T14:54:24;22.90;99.90
24468;DHT22;12634;50.852;5.676;2023-08-07T14:56:52;23.30;99.90
24468;DHT22;12634;50.852;5.676;2023-08-07T14:59:19;22.10;99.90
24468;DHT22;12634;50.852;5.676;2023-08-07T15:01:47;21.40;99.90
24468;DHT22;12634;50.852;5.676;2023-08-07T15:04:14;20.50;99.90
24468;DHT22;12634;50.852;5.676;2023-08-07T15:06:42;20.30;99.90
24468;DHT22;12634;50.852;5.676;2023-08-07T15:09:12;20.40;99.90
24468;DHT22;12634;50.852;5.676;2023-08-07T15:11:39;20.60;99.90
24468;DHT22;12634;50.852;5.676;2023-08-07T15:14:06;20.10;99.90
24468;DHT22;12634;50.852;5.676;2023-08-07T15:16:34;20.30;99.90
24468;DHT22;12634;50.852;5.676;2023-08-07T15:19:04;20.40;99.90
24468;DHT22;12634;50.852;5.676;2023-08-07T15:21:31;20.40;99.90
24468;DHT22;12634;50.852;5.676;2023-08-07T15:23:59;21.10;99.90
24468;DHT22;12634;50.852;5.676;2023-08-07T15:26:26;22.60;99.90
24468;DHT22;12634;50.852;5.676;2023-08-07T15:28:53;24.50;99.90
24468;DHT22;12634;50.852;5.676;2023-08-07T15:31:20;23.40;99.90
24468;DHT22;12634;50.852;5.676;2023-08-07T15:33:47;22.40;99.90
24468;DHT22;12634;50.852;5.676;2023-08-07T15:36:19;21.90;99.90